createdAt,value
2022-08-23T00:02:26.401Z,22.20
2022-08-23T00:05:07.995Z,22.10
2022-08-23T00:07:39.128Z,22.10
2022-08-23T00:10:11.737Z,22.10
2022-08-23T00:12:39.236Z,22.10
2022-08-23T00:15:08.926Z,22.10
2022-08-23T00:17:36.575Z,22.10
2022-08-23T00:20:06.767Z,22.00
2022-08-23T00:22:33.853Z,22.00
2022-08-23T00:25:00.767Z,21.90
2022-08-23T00:27:28.519Z,21.90
2022-08-23T00:29:57.412Z,21.90
2022-08-23T00:32:28.062Z,21.80
2022-08-23T00:34:55.848Z,21.80
2022-08-23T00:37:23.930Z,21.80
2022-08-23T00:39:50.905Z,21.70
2022-08-23T00:42:57.635Z,21.70
2022-08-23T00:45:49.178Z,21.70
2022-08-23T00:48:16.285Z,21.70
2022-08-23T00:51:08.569Z,21.70
2022-08-23T00:53:42.657Z,21.70
2022-08-23T00:56:12.373Z,21.70
2022-08-23T00:58:40.645Z,21.60
2022-08-23T01:01:07.757Z,21.60
2022-08-23T01:03:39.741Z,21.60
2022-08-23T01:06:33.361Z,21.60
2022-08-23T01:09:05.195Z,21.50
2022-08-23T01:11:33.997Z,21.50
2022-08-23T01:14:12.050Z,21.50
2022-08-23T01:16:45.587Z,21.50
2022-08-23T01:19:23.058Z,21.40
2022-08-23T01:21:59.826Z,21.40
2022-08-23T01:25:05.999Z,21.40
2022-08-23T01:27:14.663Z,21.30
2022-08-23T01:29:42.353Z,21.30
2022-08-23T01:32:09.977Z,21.30
2022-08-23T01:34:37.167Z,21.30
2022-08-23T01:37:13.517Z,21.30
2022-08-23T01:39:40.687Z,21.30
2022-08-23T01:42:08.079Z,21.30
2022-08-23T01:44:35.351Z,21.30
2022-08-23T01:47:02.548Z,21.20
2022-08-23T01:49:30.509Z,21.20
2022-08-23T01:51:57.274Z,21.20
2022-08-23T01:54:24.035Z,21.20
2022-08-23T01:56:50.834Z,21.20
2022-08-23T01:59:17.817Z,21.10
2022-08-23T02:01:44.724Z,21.10
2022-08-23T02:04:11.632Z,21.10
2022-08-23T02:06:38.542Z,21.10
2022-08-23T02:09:06.041Z,21.10
2022-08-23T02:11:45.185Z,21.00
2022-08-23T02:14:18.985Z,21.00
2022-08-23T02:17:03.009Z,21.00
2022-08-23T02:19:33.158Z,21.00
2022-08-23T02:22:00.245Z,20.90
2022-08-23T02:24:27.366Z,20.90
2022-08-23T02:26:57.330Z,20.90
2022-08-23T02:29:26.167Z,20.80
2022-08-23T02:31:53.378Z,20.80
2022-08-23T02:34:22.908Z,20.80
2022-08-23T02:36:52.145Z,20.80
2022-08-23T02:39:19.638Z,20.80
2022-08-23T02:41:47.141Z,20.80
2022-08-23T02:44:14.167Z,20.70
2022-08-23T02:46:42.040Z,20.70
2022-08-23T02:49:09.206Z,20.70
2022-08-23T02:51:36.122Z,20.60
2022-08-23T02:54:03.262Z,20.60
2022-08-23T02:56:33.160Z,20.60
2022-08-23T02:59:00.449Z,20.60
2022-08-23T03:01:30.633Z,20.60
2022-08-23T03:03:58.444Z,20.60
2022-08-23T03:06:26.621Z,20.60
2022-08-23T03:08:56.622Z,20.60
2022-08-23T03:11:25.004Z,20.50
2022-08-23T03:13:53.253Z,20.50
2022-08-23T03:16:20.909Z,20.50
2022-08-23T03:18:48.833Z,20.50
2022-08-23T03:21:16.485Z,20.40
2022-08-23T03:23:43.409Z,20.40
2022-08-23T03:26:12.743Z,20.40
2022-08-23T03:28:41.735Z,20.30
2022-08-23T03:31:09.896Z,20.30
2022-08-23T03:33:38.254Z,20.30
2022-08-23T03:36:08.407Z,20.30
2022-08-23T03:38:36.327Z,20.20
2022-08-23T03:41:03.644Z,20.20
2022-08-23T03:43:30.945Z,20.20
2022-08-23T03:45:57.875Z,20.20
2022-08-23T03:48:25.405Z,20.10
2022-08-23T03:50:54.503Z,20.10
2022-08-23T03:53:23.770Z,20.10
2022-08-23T03:55:53.251Z,20.10
2022-08-23T03:58:21.451Z,20.10
2022-08-23T04:00:48.543Z,20.10
2022-08-23T04:03:15.265Z,20.10
2022-08-23T04:05:42.149Z,20.10
2022-08-23T04:08:10.298Z,20.00
2022-08-23T04:10:39.405Z,20.00
2022-08-23T04:13:08.447Z,20.00
2022-08-23T04:15:35.454Z,19.90
2022-08-23T04:18:02.377Z,19.90
2022-08-23T04:20:29.539Z,19.90
2022-08-23T04:22:57.048Z,19.90
2022-08-23T04:25:33.697Z,19.80
2022-08-23T04:28:02.206Z,19.80
2022-08-23T04:30:29.758Z,19.80
2022-08-23T04:32:56.439Z,19.80
2022-08-23T04:35:23.542Z,19.70
2022-08-23T04:37:50.592Z,19.70
2022-08-23T04:40:36.029Z,19.70
2022-08-23T04:43:02.846Z,19.70
2022-08-23T04:45:29.958Z,19.60
2022-08-23T04:47:56.810Z,19.60
2022-08-23T04:50:23.667Z,19.60
2022-08-23T04:52:50.428Z,19.60
2022-08-23T04:55:17.355Z,19.50
2022-08-23T04:57:44.709Z,19.50
2022-08-23T05:00:13.554Z,19.50
2022-08-23T05:02:40.358Z,19.40
2022-08-23T05:05:08.489Z,19.40
2022-08-23T05:07:42.407Z,19.50
2022-08-23T05:10:12.874Z,19.40
2022-08-23T05:12:40.210Z,19.40
2022-08-23T05:15:09.419Z,19.40
2022-08-23T05:17:36.974Z,19.40
2022-08-23T05:20:06.133Z,19.30
2022-08-23T05:22:38.196Z,19.30
2022-08-23T05:25:05.644Z,19.40
2022-08-23T05:27:32.622Z,19.40
2022-08-23T05:29:59.531Z,19.40
2022-08-23T05:32:27.701Z,19.40
2022-08-23T05:34:57.091Z,19.40
2022-08-23T05:37:23.804Z,19.40
2022-08-23T05:39:50.569Z,19.50
2022-08-23T05:42:17.421Z,19.50
2022-08-23T05:44:45.477Z,19.50
2022-08-23T05:47:15.604Z,19.60
2022-08-23T05:49:43.026Z,19.60
2022-08-23T05:52:12.609Z,19.60
2022-08-23T05:54:39.486Z,19.60
2022-08-23T05:57:06.789Z,19.70
2022-08-23T05:59:34.429Z,19.70
2022-08-23T06:02:01.904Z,19.70
2022-08-23T06:04:28.795Z,19.80
2022-08-23T06:06:58.705Z,19.80
2022-08-23T06:09:26.339Z,19.80
2022-08-23T06:11:53.215Z,19.90
2022-08-23T06:14:20.034Z,19.90
2022-08-23T06:16:50.847Z,19.90
2022-08-23T06:19:20.878Z,20.00
2022-08-23T06:21:48.316Z,20.00
2022-08-23T06:24:15.279Z,20.00
2022-08-23T06:26:45.370Z,20.10
2022-08-23T06:29:15.055Z,20.20
2022-08-23T06:31:49.069Z,20.20
2022-08-23T06:34:26.580Z,20.20
2022-08-23T06:36:58.065Z,20.30
2022-08-23T06:39:26.959Z,20.30
2022-08-23T06:42:00.607Z,20.40
2022-08-23T06:44:28.358Z,20.40
2022-08-23T06:46:56.694Z,20.50
2022-08-23T06:49:24.696Z,20.50
2022-08-23T06:51:55.870Z,20.60
2022-08-23T06:54:26.739Z,20.60
2022-08-23T06:56:54.086Z,20.70
2022-08-23T06:59:21.327Z,20.70
2022-08-23T07:02:01.346Z,20.80
2022-08-23T07:04:34.744Z,20.80
2022-08-23T07:07:03.090Z,20.80
2022-08-23T07:09:31.569Z,20.90
2022-08-23T07:11:59.866Z,20.90
2022-08-23T07:14:27.729Z,20.90
2022-08-23T07:16:57.099Z,20.90
2022-08-23T07:19:29.221Z,21.00
2022-08-23T07:21:57.299Z,21.10
2022-08-23T07:24:28.136Z,21.10
2022-08-23T07:26:57.916Z,21.10
2022-08-23T07:29:24.745Z,21.20
2022-08-23T07:31:55.131Z,21.20
2022-08-23T07:34:23.429Z,21.30
2022-08-23T07:36:54.041Z,21.30
2022-08-23T07:39:22.588Z,21.40
2022-08-23T07:41:49.831Z,21.50
2022-08-23T07:44:18.171Z,21.50
2022-08-23T07:46:46.661Z,21.60
2022-08-23T07:49:14.546Z,21.70
2022-08-23T07:51:45.449Z,21.70
2022-08-23T07:54:12.955Z,21.80
2022-08-23T07:56:40.578Z,21.80
2022-08-23T07:59:08.229Z,21.90
2022-08-23T08:01:35.518Z,21.90
2022-08-23T08:04:04.337Z,22.00
2022-08-23T08:06:40.086Z,22.10
2022-08-23T08:09:07.279Z,22.10
2022-08-23T08:11:35.720Z,22.20
2022-08-23T08:14:06.512Z,22.30
2022-08-23T08:16:36.851Z,22.30
2022-08-23T08:19:07.660Z,22.40
2022-08-23T08:21:35.998Z,22.40
2022-08-23T08:24:07.879Z,22.50
2022-08-23T08:26:34.819Z,22.60
2022-08-23T08:29:01.635Z,22.60
2022-08-23T08:31:28.701Z,22.70
2022-08-23T08:33:55.729Z,22.80
2022-08-23T08:36:33.469Z,22.80
2022-08-23T08:39:00.769Z,22.90
2022-08-23T08:41:40.782Z,22.90
2022-08-23T08:44:16.417Z,23.00
2022-08-23T08:46:50.112Z,23.10
2022-08-23T08:49:24.478Z,23.20
2022-08-23T08:51:59.575Z,23.20
2022-08-23T08:54:29.346Z,23.40
2022-08-23T08:56:59.218Z,23.40
2022-08-23T08:59:38.393Z,23.50
2022-08-23T09:02:07.494Z,23.60
2022-08-23T09:04:54.555Z,23.70
2022-08-23T09:07:37.739Z,23.80
2022-08-23T09:10:25.352Z,23.90
2022-08-23T09:13:04.021Z,23.90
2022-08-23T09:15:39.934Z,24.00
2022-08-23T09:18:15.778Z,24.20
2022-08-23T09:20:52.233Z,24.20
2022-08-23T09:23:26.121Z,24.30
2022-08-23T09:26:03.778Z,24.40
2022-08-23T09:28:34.826Z,24.50
2022-08-23T09:31:02.658Z,24.60
2022-08-23T09:33:38.259Z,24.70
2022-08-23T09:36:06.905Z,24.70
2022-08-23T09:38:34.424Z,24.80
2022-08-23T09:41:01.614Z,24.90
2022-08-23T09:43:42.586Z,25.00
2022-08-23T09:46:09.416Z,25.00
2022-08-23T09:48:39.918Z,25.10
2022-08-23T09:51:35.979Z,25.20
2022-08-23T09:54:07.168Z,25.20
2022-08-23T09:56:45.111Z,25.30
2022-08-23T09:59:52.549Z,25.30
2022-08-23T10:02:37.552Z,25.40
2022-08-23T10:05:18.398Z,25.50
2022-08-23T10:07:56.078Z,25.60
2022-08-23T10:10:23.840Z,25.60
2022-08-23T10:12:51.455Z,25.70
2022-08-23T10:15:18.753Z,25.70
2022-08-23T10:18:10.649Z,25.80
2022-08-23T10:21:06.204Z,25.90
2022-08-23T10:23:38.122Z,26.00
2022-08-23T10:26:08.015Z,26.10
2022-08-23T10:29:24.681Z,26.20
2022-08-23T10:32:00.662Z,26.40
2022-08-23T10:34:45.961Z,26.50
2022-08-23T10:37:30.912Z,26.60
2022-08-23T10:40:09.813Z,26.70
2022-08-23T10:43:01.707Z,26.80
2022-08-23T10:45:38.807Z,26.90
2022-08-23T10:48:28.872Z,27.00
2022-08-23T10:51:06.704Z,27.20
2022-08-23T10:53:36.675Z,27.30
2022-08-23T10:56:04.496Z,27.30
2022-08-23T10:58:41.314Z,27.40
2022-08-23T11:01:12.032Z,27.60
2022-08-23T11:03:47.737Z,27.70
2022-08-23T11:06:36.397Z,27.80
2022-08-23T11:09:15.182Z,27.90
2022-08-23T11:12:06.102Z,28.10
2022-08-23T11:14:41.836Z,28.30
2022-08-23T11:17:24.986Z,28.40
2022-08-23T11:20:00.749Z,28.50
2022-08-23T11:22:33.593Z,28.70
2022-08-23T11:25:02.295Z,28.80
2022-08-23T11:28:13.746Z,28.90
2022-08-23T11:30:46.270Z,29.10
2022-08-23T11:33:19.183Z,29.20
2022-08-23T11:36:13.871Z,29.30
2022-08-23T11:38:43.729Z,29.40
2022-08-23T11:41:26.534Z,29.50
2022-08-23T11:43:56.135Z,29.60
2022-08-23T11:46:25.891Z,29.70
2022-08-23T11:49:28.889Z,29.90
2022-08-23T11:52:14.186Z,30.00
2022-08-23T11:55:00.510Z,30.10
2022-08-23T11:57:54.518Z,30.30
2022-08-23T12:00:59.636Z,30.40
2022-08-23T12:03:51.942Z,30.50
2022-08-23T12:06:57.974Z,30.60
2022-08-23T12:09:24.671Z,30.80
2022-08-23T12:11:57.601Z,30.90
2022-08-23T12:14:51.645Z,30.90
2022-08-23T12:17:19.332Z,31.00
2022-08-23T12:19:51.191Z,31.10
2022-08-23T12:22:31.030Z,31.20
2022-08-23T12:25:03.423Z,31.40
2022-08-23T12:27:34.835Z,31.60
2022-08-23T12:30:22.439Z,31.80
2022-08-23T12:33:07.815Z,31.90
2022-08-23T12:35:46.652Z,32.00
2022-08-23T12:38:19.470Z,32.00
2022-08-23T12:40:54.595Z,32.10
2022-08-23T12:43:30.424Z,32.10
2022-08-23T12:46:01.543Z,32.20
2022-08-23T12:48:32.335Z,32.30
2022-08-23T12:51:07.546Z,32.50
2022-08-23T12:53:44.023Z,32.60
2022-08-23T12:56:31.396Z,32.70
2022-08-23T12:59:05.265Z,32.90
2022-08-23T13:01:35.817Z,33.00
2022-08-23T13:04:14.205Z,33.20
2022-08-23T13:06:47.411Z,33.30
2022-08-23T13:09:22.545Z,33.50
2022-08-23T13:11:49.537Z,33.60
2022-08-23T13:14:44.154Z,33.60
2022-08-23T13:17:20.023Z,33.60
2022-08-23T13:19:48.963Z,33.80
2022-08-23T13:22:22.191Z,33.90
2022-08-23T13:25:24.795Z,34.00
2022-08-23T13:27:44.873Z,34.10
2022-08-23T13:30:11.575Z,33.80
2022-08-23T13:32:47.060Z,33.70
2022-08-23T13:35:31.395Z,33.70
2022-08-23T13:38:06.930Z,33.90
2022-08-23T13:40:43.279Z,34.00
2022-08-23T13:43:20.975Z,34.00
2022-08-23T13:45:54.776Z,33.70
2022-08-23T13:48:35.206Z,33.40
2022-08-23T13:51:40.190Z,33.10
2022-08-23T13:54:12.849Z,33.10
2022-08-23T13:56:48.223Z,33.20
2022-08-23T13:59:26.929Z,33.30
2022-08-23T14:02:01.814Z,33.40
2022-08-23T14:04:28.827Z,33.50
2022-08-23T14:06:55.564Z,33.50
2022-08-23T14:09:22.353Z,33.60
2022-08-23T14:11:55.365Z,33.60
2022-08-23T14:14:22.228Z,33.70
2022-08-23T14:16:49.141Z,33.90
2022-08-23T14:19:17.998Z,34.00
2022-08-23T14:22:02.875Z,34.10
2022-08-23T14:24:30.341Z,34.20
2022-08-23T14:26:57.758Z,34.30
2022-08-23T14:29:27.981Z,34.50
2022-08-23T14:31:55.415Z,34.60
2022-08-23T14:34:22.286Z,34.60
2022-08-23T14:39:38.276Z,34.50
2022-08-23T14:42:05.841Z,34.40
2022-08-23T14:44:35.718Z,34.30
2022-08-23T14:47:03.335Z,34.20
2022-08-23T14:49:30.106Z,33.90
2022-08-23T14:51:56.897Z,33.60
2022-08-23T14:54:25.704Z,33.50
2022-08-23T14:56:53.461Z,33.60
2022-08-23T14:59:20.612Z,33.60
2022-08-23T15:01:49.608Z,33.60
2022-08-23T15:04:23.199Z,33.70
2022-08-23T15:07:16.299Z,33.80
2022-08-23T15:09:38.285Z,33.60
2022-08-23T15:14:52.704Z,33.10
2022-08-23T15:17:19.676Z,32.80
2022-08-23T15:19:46.418Z,32.80
2022-08-23T15:22:21.502Z,32.90
2022-08-23T15:24:49.640Z,33.00
2022-08-23T15:27:24.538Z,33.10
2022-08-23T15:29:51.293Z,33.20
2022-08-23T15:32:22.651Z,33.30
2022-08-23T15:34:50.482Z,33.10
2022-08-23T15:37:20.265Z,33.10
2022-08-23T15:39:47.121Z,33.20
2022-08-23T15:42:20.102Z,33.30
2022-08-23T15:44:48.141Z,33.30
2022-08-23T15:47:27.767Z,33.30
2022-08-23T15:49:55.872Z,33.10
2022-08-23T15:52:22.685Z,33.10
2022-08-23T15:54:49.448Z,33.10
2022-08-23T15:57:21.706Z,33.10
2022-08-23T15:59:48.503Z,33.10
2022-08-23T16:02:15.654Z,33.10
2022-08-23T16:04:42.546Z,32.90
2022-08-23T16:07:12.812Z,32.70
2022-08-23T16:09:40.829Z,32.60
2022-08-23T16:12:08.464Z,32.50
2022-08-23T16:14:36.742Z,32.50
2022-08-23T16:17:04.221Z,32.40
2022-08-23T16:19:31.364Z,32.30
2022-08-23T16:21:59.976Z,32.30
2022-08-23T16:24:27.834Z,32.30
2022-08-23T16:26:55.277Z,32.20
2022-08-23T16:29:22.194Z,32.20
2022-08-23T16:31:49.123Z,32.10
2022-08-23T16:34:18.699Z,32.00
2022-08-23T16:36:56.497Z,31.90
2022-08-23T16:39:25.676Z,31.70
2022-08-23T16:41:52.482Z,31.50
2022-08-23T16:44:19.929Z,31.40
2022-08-23T16:46:46.869Z,31.30
2022-08-23T16:49:16.247Z,31.20
2022-08-23T16:51:43.307Z,31.10
2022-08-23T16:54:10.566Z,31.00
2022-08-23T16:56:39.198Z,30.90
2022-08-23T16:59:08.029Z,30.80
2022-08-23T17:01:51.297Z,30.70
2022-08-23T17:04:19.583Z,30.60
2022-08-23T17:06:46.691Z,30.60
2022-08-23T17:09:14.727Z,30.50
2022-08-23T17:11:43.790Z,30.40
2022-08-23T17:14:12.538Z,30.40
2022-08-23T17:16:41.632Z,30.30
2022-08-23T17:19:08.680Z,30.30
2022-08-23T17:21:35.523Z,30.20
2022-08-23T17:24:02.422Z,30.10
2022-08-23T17:26:29.258Z,30.10
2022-08-23T17:28:56.630Z,30.00
2022-08-23T17:31:24.758Z,30.00
2022-08-23T17:33:51.515Z,30.00
2022-08-23T17:36:28.490Z,29.90
2022-08-23T17:38:57.059Z,29.90
2022-08-23T17:41:27.254Z,29.90
2022-08-23T17:43:54.707Z,29.80
2022-08-23T17:46:21.777Z,29.80
2022-08-23T17:48:48.596Z,29.70
2022-08-23T17:51:15.398Z,29.70
2022-08-23T17:53:42.480Z,29.60
2022-08-23T17:56:12.244Z,29.60
2022-08-23T17:58:39.679Z,29.50
2022-08-23T18:01:06.826Z,29.50
2022-08-23T18:03:33.707Z,29.40
2022-08-23T18:06:01.204Z,29.40
2022-08-23T18:08:43.950Z,29.30
2022-08-23T18:11:11.093Z,29.30
2022-08-23T18:13:37.913Z,29.20
2022-08-23T18:16:05.314Z,29.20
2022-08-23T18:18:32.385Z,29.20
2022-08-23T18:21:03.727Z,29.10
2022-08-23T18:23:30.454Z,29.10
2022-08-23T18:25:57.232Z,29.00
2022-08-23T18:28:24.107Z,29.00
2022-08-23T18:30:54.893Z,28.90
2022-08-23T18:33:25.280Z,28.90
2022-08-23T18:35:58.302Z,28.80
2022-08-23T18:38:25.203Z,28.70
2022-08-23T18:40:52.244Z,28.70
2022-08-23T18:43:22.406Z,28.60
2022-08-23T18:45:54.093Z,28.50
2022-08-23T18:48:22.294Z,28.50
2022-08-23T18:50:49.776Z,28.40
2022-08-23T18:53:18.829Z,28.30
2022-08-23T18:55:46.300Z,28.30
2022-08-23T18:58:13.168Z,28.30
2022-08-23T19:00:41.086Z,28.20
2022-08-23T19:03:08.332Z,28.20
2022-08-23T19:05:41.883Z,28.10
2022-08-23T19:08:10.527Z,28.00
2022-08-23T19:10:37.957Z,28.00
2022-08-23T19:13:05.047Z,28.00
2022-08-23T19:15:34.341Z,27.90
2022-08-23T19:18:01.724Z,27.90
2022-08-23T19:20:29.166Z,27.80
2022-08-23T19:22:57.402Z,27.70
2022-08-23T19:25:25.213Z,27.70
2022-08-23T19:27:52.327Z,27.70
2022-08-23T19:30:19.145Z,27.70
2022-08-23T19:32:46.901Z,27.70
2022-08-23T19:35:14.468Z,27.50
2022-08-23T19:37:41.448Z,27.50
2022-08-23T19:40:08.908Z,27.50
2022-08-23T19:42:37.737Z,27.50
2022-08-23T19:45:06.296Z,27.40
2022-08-23T19:47:33.781Z,27.40
2022-08-23T19:50:00.742Z,27.40
2022-08-23T19:52:27.554Z,27.30
2022-08-23T19:54:57.927Z,27.30
2022-08-23T19:57:29.863Z,27.20
2022-08-23T20:00:01.316Z,27.20
2022-08-23T20:02:28.777Z,27.10
2022-08-23T20:04:55.763Z,27.10
2022-08-23T20:07:22.557Z,27.00
2022-08-23T20:09:49.384Z,27.00
2022-08-23T20:12:17.343Z,27.00
2022-08-23T20:14:44.740Z,26.90
2022-08-23T20:17:11.566Z,26.90
2022-08-23T20:19:38.488Z,26.80
2022-08-23T20:22:23.757Z,26.80
2022-08-23T20:24:52.899Z,26.80
2022-08-23T20:27:27.796Z,26.70
2022-08-23T20:29:59.028Z,26.60
2022-08-23T20:32:26.556Z,26.60
2022-08-23T20:34:53.522Z,26.60
2022-08-23T20:37:20.324Z,26.60
2022-08-23T20:39:47.132Z,26.60
2022-08-23T20:42:13.979Z,26.50
2022-08-23T20:44:40.770Z,26.50
2022-08-23T20:47:07.609Z,26.50
2022-08-23T20:49:34.491Z,26.40
2022-08-23T20:52:01.310Z,26.40
2022-08-23T20:54:28.146Z,26.40
2022-08-23T20:56:54.946Z,26.30
2022-08-23T20:59:22.106Z,26.30
2022-08-23T21:01:49.795Z,26.20
2022-08-23T21:04:17.114Z,26.20
2022-08-23T21:06:48.481Z,26.20
2022-08-23T21:09:19.360Z,26.20
2022-08-23T21:11:48.215Z,26.10
2022-08-23T21:14:15.933Z,26.10
2022-08-23T21:16:44.164Z,26.10
2022-08-23T21:19:10.937Z,26.10
2022-08-23T21:21:39.573Z,26.00
2022-08-23T21:24:07.882Z,26.00
2022-08-23T21:26:35.544Z,25.90
2022-08-23T21:29:03.044Z,25.90
2022-08-23T21:31:31.474Z,25.80
2022-08-23T21:34:00.221Z,25.80
2022-08-23T21:36:27.460Z,25.80
2022-08-23T21:38:54.288Z,25.80
2022-08-23T21:41:38.008Z,25.70
2022-08-23T21:44:08.345Z,25.70
2022-08-23T21:46:35.766Z,25.70
2022-08-23T21:49:03.510Z,25.70
2022-08-23T21:51:30.302Z,25.70
2022-08-23T21:53:57.817Z,25.60
2022-08-23T21:56:26.473Z,25.60
2022-08-23T21:58:57.324Z,25.50
2022-08-23T22:01:24.144Z,25.50
2022-08-23T22:03:56.192Z,25.50
2022-08-23T22:06:24.111Z,25.40
2022-08-23T22:08:50.900Z,25.40
2022-08-23T22:11:18.219Z,25.40
2022-08-23T22:13:45.379Z,25.40
2022-08-23T22:16:12.490Z,25.40
2022-08-23T22:18:39.379Z,25.30
2022-08-23T22:21:06.966Z,25.30
2022-08-23T22:23:36.367Z,25.30
2022-08-23T22:26:06.470Z,25.30
2022-08-23T22:28:33.898Z,25.20
2022-08-23T22:31:02.462Z,25.20
2022-08-23T22:33:29.875Z,25.20
2022-08-23T22:36:08.413Z,25.20
2022-08-23T22:38:35.265Z,25.10
2022-08-23T22:41:02.118Z,25.10
2022-08-23T22:43:29.346Z,25.10
2022-08-23T22:46:00.737Z,25.10
2022-08-23T22:48:29.870Z,25.10
2022-08-23T22:51:08.345Z,25.10
2022-08-23T22:53:37.877Z,25.00
2022-08-23T22:56:05.873Z,25.00
2022-08-23T22:58:33.138Z,25.00
2022-08-23T23:01:00.677Z,25.00
2022-08-23T23:03:31.742Z,25.00
2022-08-23T23:05:58.719Z,24.90
2022-08-23T23:08:27.450Z,24.90
2022-08-23T23:10:59.824Z,24.80
2022-08-23T23:13:29.654Z,24.80
2022-08-23T23:15:58.106Z,24.80
2022-08-23T23:18:26.800Z,24.80
2022-08-23T23:20:58.490Z,24.70
2022-08-23T23:23:26.836Z,24.70
2022-08-23T23:25:54.018Z,24.70
2022-08-23T23:28:21.871Z,24.60
2022-08-23T23:30:51.289Z,24.60
2022-08-23T23:33:19.421Z,24.60
2022-08-23T23:35:47.354Z,24.50
2022-08-23T23:38:15.178Z,24.50
2022-08-23T23:40:42.255Z,24.50
2022-08-23T23:43:12.885Z,24.50
2022-08-23T23:45:41.243Z,24.40
2022-08-23T23:48:08.895Z,24.40
2022-08-23T23:50:41.563Z,24.40
2022-08-23T23:53:11.985Z,24.40
2022-08-23T23:55:38.914Z,24.30
2022-08-23T23:58:05.938Z,24.30
